Time;durP1;ratioP1;P1;durP2;ratioP2;P2;SDS_P1;SDS_P2;PMS_P1;PMS_P2;Temp;Humidity;BMP_temperature;BMP_pressure;BME280_temperature;BME280_humidity;BME280_pressure;Samples;Min_cycle;Max_cycle;Signal;HPM_P1;HPM_P2
2023/11/16 00:00:56;;;;;;;9.50;4.60;;;;;;;;;;103672;1291;545096;-71
2023/11/16 00:04:33;;;;;;;10.10;4.80;;;;;;;;;;104563;1283;545327;-72
2023/11/16 00:08:10;;;;;;;8.70;4.70;;;;;;;;;;103738;1291;544877;-72
2023/11/16 00:11:47;;;;;;;9.40;4.40;;;;;;;;;;103676;1291;545662;-72
2023/11/16 00:15:24;;;;;;;8.10;3.80;;;;;;;;;;103742;1291;544727;-73
2023/11/16 00:19:00;;;;;;;7.80;3.10;;;;;;;;;;103916;1288;545886;-70
2023/11/16 00:22:45;;;;;;;7.60;3.00;;;;;;;;;;103671;1291;547853;-73
2023/11/16 00:26:23;;;;;;;6.30;2.40;;;;;;;;;;104248;1288;545278;-71
2023/11/16 00:29:54;;;;;;;7.10;2.20;;;;;;;;;;103864;1294;545028;-70
2023/11/16 00:33:33;;;;;;;5.60;2.00;;;;;;;;;;104189;1286;544984;-71
2023/11/16 00:37:10;;;;;;;5.70;1.90;;;;;;;;;;103842;1292;544763;-71
2023/11/16 00:40:47;;;;;;;5.50;2.00;;;;;;;;;;103908;1288;545800;-72
2023/11/16 00:44:23;;;;;;;4.00;1.60;;;;;;;;;;103628;1294;545349;-72
2023/11/16 00:48:01;;;;;;;4.20;1.50;;;;;;;;;;103520;1294;545032;-71
2023/11/16 00:51:39;;;;;;;3.70;1.30;;;;;;;;;;103812;1291;544771;-72
2023/11/16 00:55:17;;;;;;;4.30;1.60;;;;;;;;;;103758;1290;545051;-72
2023/11/16 00:58:55;;;;;;;4.60;1.50;;;;;;;;;;103715;1291;545597;-72
2023/11/16 01:02:32;;;;;;;5.20;1.70;;;;;;;;;;103904;1289;544776;-71
2023/11/16 01:06:08;;;;;;;5.90;1.50;;;;;;;;;;103737;1292;544892;-71
2023/11/16 01:09:46;;;;;;;5.10;1.70;;;;;;;;;;103909;1288;544773;-72
2023/11/16 01:13:24;;;;;;;5.00;1.90;;;;;;;;;;103631;1293;545776;-71
2023/11/16 01:17:07;;;;;;;4.50;1.70;;;;;;;;;;103773;1291;545436;-72
2023/11/16 01:20:39;;;;;;;5.20;1.70;;;;;;;;;;103892;1290;544920;-73
2023/11/16 01:24:18;;;;;;;4.90;2.00;;;;;;;;;;103590;1293;544922;-72
2023/11/16 01:27:57;;;;;;;5.80;2.40;;;;;;;;;;104137;1289;545080;-72
2023/11/16 01:31:31;;;;;;;4.70;1.90;;;;;;;;;;103681;1291;545393;-72
2023/11/16 01:35:10;;;;;;;5.20;2.00;;;;;;;;;;104612;1288;545524;-71
2023/11/16 01:38:46;;;;;;;4.40;1.60;;;;;;;;;;104045;1288;545947;-73
2023/11/16 01:42:23;;;;;;;5.70;2.20;;;;;;;;;;103768;1290;546039;-72
2023/11/16 01:46:09;;;;;;;5.90;2.00;;;;;;;;;;103832;1292;545531;-72
2023/11/16 01:49:38;;;;;;;4.30;1.80;;;;;;;;;;103659;1291;545303;-73
2023/11/16 01:53:13;;;;;;;5.70;2.30;;;;;;;;;;104788;1283;544957;-72
2023/11/16 01:56:53;;;;;;;6.30;3.10;;;;;;;;;;103817;1302;545080;-72
2023/11/16 02:00:33;;;;;;;6.80;3.80;;;;;;;;;;103810;1291;545749;-72
2023/11/16 02:04:09;;;;;;;7.50;3.60;;;;;;;;;;104086;1289;544957;-71
2023/11/16 02:07:45;;;;;;;7.90;3.30;;;;;;;;;;103811;1290;545503;-73
2023/11/16 02:11:43;;;;;;;6.50;2.80;;;;;;;;;;103741;1292;548430;-73
2023/11/16 02:15:01;;;;;;;6.30;2.50;;;;;;;;;;103581;1295;544977;-72
2023/11/16 02:18:38;;;;;;;6.20;2.60;;;;;;;;;;103646;1298;545069;-70
2023/11/16 02:22:17;;;;;;;6.00;2.00;;;;;;;;;;103820;1289;545724;-72
2023/11/16 02:25:56;;;;;;;5.80;2.40;;;;;;;;;;104547;1282;544848;-72
2023/11/16 02:29:30;;;;;;;6.20;2.60;;;;;;;;;;103614;1294;546391;-73
2023/11/16 02:33:08;;;;;;;4.60;2.00;;;;;;;;;;104089;1288;544998;-72
2023/11/16 02:36:46;;;;;;;6.90;2.90;;;;;;;;;;103808;1289;544781;-73
2023/11/16 02:40:23;;;;;;;7.00;3.60;;;;;;;;;;104050;1288;544748;-71
2023/11/16 02:44:00;;;;;;;8.90;5.00;;;;;;;;;;103938;1289;546095;-72
2023/11/16 02:47:38;;;;;;;7.80;3.70;;;;;;;;;;103861;1302;545006;-71
2023/11/16 02:51:15;;;;;;;7.70;3.80;;;;;;;;;;103830;1289;545918;-72
2023/11/16 02:54:53;;;;;;;7.50;4.10;;;;;;;;;;103844;1291;544961;-72
2023/11/16 02:58:31;;;;;;;7.90;4.30;;;;;;;;;;103967;1292;546057;-71
2023/11/16 03:02:07;;;;;;;7.60;3.80;;;;;;;;;;103792;1295;544760;-73
2023/11/16 03:05:46;;;;;;;7.10;3.90;;;;;;;;;;103796;1289;544965;-72
2023/11/16 03:09:23;;;;;;;8.30;4.50;;;;;;;;;;103910;1291;544793;-72
2023/11/16 03:13:00;;;;;;;10.20;4.60;;;;;;;;;;103829;1290;545531;-73
2023/11/16 03:16:49;;;;;;;8.00;4.30;;;;;;;;;;103821;1290;545777;-72
2023/11/16 03:20:18;;;;;;;7.10;4.00;;;;;;;;;;103988;1288;545002;-71
2023/11/16 03:23:52;;;;;;;9.00;4.60;;;;;;;;;;103823;1291;546074;-73
2023/11/16 03:27:32;;;;;;;8.10;4.50;;;;;;;;;;103900;1292;545043;-74
2023/11/16 03:31:07;;;;;;;7.80;4.30;;;;;;;;;;103766;1295;544920;-73
2023/11/16 03:34:45;;;;;;;10.10;5.00;;;;;;;;;;103801;1291;544843;-72
2023/11/16 03:38:24;;;;;;;9.70;6.10;;;;;;;;;;104007;1289;544967;-72
2023/11/16 03:42:01;;;;;;;9.60;5.70;;;;;;;;;;103788;1294;544868;-73
2023/11/16 03:45:37;;;;;;;7.80;4.70;;;;;;;;;;104141;1286;545212;-74
2023/11/16 03:49:15;;;;;;;8.10;5.00;;;;;;;;;;104089;1288;545066;-74
2023/11/16 03:52:52;;;;;;;8.80;5.60;;;;;;;;;;103817;1292;545210;-73
2023/11/16 03:56:31;;;;;;;8.50;5.00;;;;;;;;;;103853;1290;545328;-72
2023/11/16 04:00:08;;;;;;;7.90;4.30;;;;;;;;;;103768;1292;545475;-73
2023/11/16 04:03:45;;;;;;;9.00;5.10;;;;;;;;;;103731;1291;544980;-72
2023/11/16 04:07:22;;;;;;;9.70;5.30;;;;;;;;;;103813;1291;545920;-71
2023/11/16 04:11:02;;;;;;;8.00;4.70;;;;;;;;;;103765;1292;544830;-72
2023/11/16 04:14:41;;;;;;;8.00;3.40;;;;;;;;;;104554;1282;545376;-72
2023/11/16 04:18:15;;;;;;;7.20;3.70;;;;;;;;;;103801;1291;545440;-72
2023/11/16 04:21:54;;;;;;;8.40;4.70;;;;;;;;;;103820;1289;544712;-72
2023/11/16 04:25:33;;;;;;;7.70;3.70;;;;;;;;;;103835;1291;544939;-74
2023/11/16 04:29:07;;;;;;;6.60;3.00;;;;;;;;;;103826;1290;545265;-73
2023/11/16 04:32:45;;;;;;;7.60;2.70;;;;;;;;;;103837;1292;545475;-73
2023/11/16 04:36:28;;;;;;;7.20;2.70;;;;;;;;;;103801;1289;545008;-74
2023/11/16 04:39:59;;;;;;;8.00;2.90;;;;;;;;;;103795;1289;546066;-73
2023/11/16 04:43:36;;;;;;;6.00;2.30;;;;;;;;;;104103;1289;544793;-73
2023/11/16 04:47:13;;;;;;;7.60;3.40;;;;;;;;;;103927;1288;545402;-73
2023/11/16 04:50:51;;;;;;;8.40;3.60;;;;;;;;;;103898;1301;544967;-72
2023/11/16 04:54:30;;;;;;;8.10;2.80;;;;;;;;;;104031;1285;546102;-73
2023/11/16 04:58:06;;;;;;;6.60;2.50;;;;;;;;;;103834;1294;545099;-74
2023/11/16 05:01:44;;;;;;;6.90;3.00;;;;;;;;;;103758;1303;544728;-73
2023/11/16 05:05:22;;;;;;;8.70;3.90;;;;;;;;;;103740;1290;544965;-74
2023/11/16 05:08:59;;;;;;;7.10;2.70;;;;;;;;;;103850;1289;545357;-72
2023/11/16 05:12:39;;;;;;;7.30;2.60;;;;;;;;;;103884;1289;544744;-73
2023/11/16 05:16:16;;;;;;;7.90;2.50;;;;;;;;;;103906;1292;544942;-74
2023/11/16 05:19:51;;;;;;;7.80;3.40;;;;;;;;;;103963;1288;544836;-73
2023/11/16 05:23:29;;;;;;;7.50;3.60;;;;;;;;;;103872;1294;545238;-74
2023/11/16 05:27:07;;;;;;;9.10;3.70;;;;;;;;;;103792;1290;545936;-72
2023/11/16 05:30:44;;;;;;;8.50;3.80;;;;;;;;;;103931;1291;545736;-73
2023/11/16 05:34:22;;;;;;;9.90;5.30;;;;;;;;;;103680;1297;546419;-72
2023/11/16 05:37:59;;;;;;;10.40;5.00;;;;;;;;;;103824;1292;545026;-73
2023/11/16 05:41:36;;;;;;;9.70;4.70;;;;;;;;;;103760;1292;544596;-72
2023/11/16 05:45:14;;;;;;;8.10;3.40;;;;;;;;;;103876;1288;544788;-74
2023/11/16 05:48:51;;;;;;;8.60;3.80;;;;;;;;;;103876;1289;545059;-73
2023/11/16 05:52:29;;;;;;;8.80;3.90;;;;;;;;;;103704;1289;544954;-73
2023/11/16 05:56:06;;;;;;;8.50;3.60;;;;;;;;;;104047;1288;545102;-72
2023/11/16 05:59:43;;;;;;;7.60;3.30;;;;;;;;;;103773;1289;544792;-74
2023/11/16 06:03:26;;;;;;;6.90;2.50;;;;;;;;;;103844;1292;544961;-74
2023/11/16 06:06:58;;;;;;;9.80;3.20;;;;;;;;;;103808;1292;545052;-74
2023/11/16 06:10:35;;;;;;;7.90;3.00;;;;;;;;;;103893;1296;545706;-72
2023/11/16 06:14:14;;;;;;;8.70;3.10;;;;;;;;;;103859;1291;545343;-72
2023/11/16 06:17:54;;;;;;;10.30;3.80;;;;;;;;;;103862;1292;544872;-73
2023/11/16 06:21:27;;;;;;;11.10;4.70;;;;;;;;;;103813;1292;545304;-75
2023/11/16 06:25:07;;;;;;;13.10;5.00;;;;;;;;;;103784;1295;544949;-74
2023/11/16 06:28:43;;;;;;;17.40;7.10;;;;;;;;;;103805;1290;544983;-74
2023/11/16 06:32:16;;;;;;;15.50;6.00;;;;;;;;;;104804;1282;545012;-72
2023/11/16 06:35:58;;;;;;;16.50;8.60;;;;;;;;;;103869;1289;544872;-72
2023/11/16 06:39:35;;;;;;;13.50;7.30;;;;;;;;;;103582;1295;545010;-74
2023/11/16 06:43:24;;;;;;;;;;;;;;;;;;;;;
2023/11/16 06:46:52;;;;;;;11.10;5.80;;;;;;;;;;103850;1288;544973;-72
2023/11/16 06:50:28;;;;;;;9.70;4.20;;;;;;;;;;103822;1292;544980;-74
2023/11/16 06:54:06;;;;;;;12.00;3.60;;;;;;;;;;103593;1294;544794;-74
2023/11/16 06:57:43;;;;;;;10.70;4.10;;;;;;;;;;103823;1289;544705;-73
2023/11/16 07:01:18;;;;;;;12.40;4.70;;;;;;;;;;103902;1289;544949;-73
2023/11/16 07:04:58;;;;;;;9.10;3.30;;;;;;;;;;103862;1290;545113;-72
2023/11/16 07:08:35;;;;;;;9.30;3.70;;;;;;;;;;103792;1291;544902;-72
2023/11/16 07:12:12;;;;;;;11.50;6.20;;;;;;;;;;103840;1289;545459;-73
2023/11/16 07:15:50;;;;;;;13.00;6.60;;;;;;;;;;103508;1294;544954;-74
2023/11/16 07:19:28;;;;;;;12.00;4.70;;;;;;;;;;103814;1292;545192;-73
2023/11/16 07:23:05;;;;;;;9.00;3.70;;;;;;;;;;103765;1289;544936;-73
2023/11/16 07:26:42;;;;;;;10.60;3.60;;;;;;;;;;103957;1289;545081;-72
2023/11/16 07:30:20;;;;;;;9.70;3.80;;;;;;;;;;103932;1289;545010;-72
2023/11/16 07:34:18;;;;;;;12.60;4.70;;;;;;;;;;103769;1291;548016;-74
2023/11/16 07:37:37;;;;;;;9.60;3.60;;;;;;;;;;104375;1283;545642;-72
2023/11/16 07:41:14;;;;;;;8.80;3.90;;;;;;;;;;104549;1283;544987;-74
2023/11/16 07:44:50;;;;;;;9.70;4.70;;;;;;;;;;103822;1291;545409;-72
2023/11/16 07:48:30;;;;;;;13.80;5.50;;;;;;;;;;103795;1292;544981;-72
2023/11/16 07:52:10;;;;;;;11.00;4.70;;;;;;;;;;103791;1292;545075;-72
2023/11/16 07:55:48;;;;;;;13.40;5.20;;;;;;;;;;103851;1289;545020;-72
2023/11/16 07:59:18;;;;;;;13.40;6.10;;;;;;;;;;104587;1283;544951;-73
2023/11/16 08:06:37;;;;;;;12.40;5.30;;;;;;;;;;103575;1293;545104;-73
2023/11/16 08:10:12;;;;;;;13.20;6.10;;;;;;;;;;103805;1289;544810;-73
2023/11/16 08:13:50;;;;;;;13.70;7.80;;;;;;;;;;103778;1290;544773;-74
2023/11/16 08:17:28;;;;;;;15.90;8.20;;;;;;;;;;103783;1288;545230;-73
2023/11/16 08:21:06;;;;;;;15.10;7.90;;;;;;;;;;103532;1294;544842;-72
2023/11/16 08:24:42;;;;;;;13.40;7.10;;;;;;;;;;103948;1289;545408;-72
2023/11/16 08:28:20;;;;;;;10.30;5.60;;;;;;;;;;103828;1291;545672;-72
2023/11/16 08:31:59;;;;;;;11.20;5.60;;;;;;;;;;103792;1289;546215;-73
2023/11/16 08:35:37;;;;;;;9.60;5.40;;;;;;;;;;103994;1288;545147;-71
2023/11/16 08:39:14;;;;;;;12.30;5.10;;;;;;;;;;103807;1292;545608;-73
2023/11/16 08:42:50;;;;;;;9.90;5.20;;;;;;;;;;104071;1288;545037;-72
2023/11/16 08:46:31;;;;;;;12.50;7.10;;;;;;;;;;104537;1282;544729;-72
2023/11/16 08:50:05;;;;;;;14.30;7.00;;;;;;;;;;103759;1289;545672;-72
2023/11/16 08:53:44;;;;;;;10.00;4.40;;;;;;;;;;103743;1292;545133;-73
2023/11/16 08:57:25;;;;;;;8.60;3.70;;;;;;;;;;103309;1297;548011;-75
2023/11/16 09:00:58;;;;;;;7.90;3.60;;;;;;;;;;104135;1285;544833;-73
2023/11/16 09:04:33;;;;;;;7.50;3.10;;;;;;;;;;103833;1294;545813;-72
2023/11/16 09:08:13;;;;;;;9.10;4.00;;;;;;;;;;103839;1291;544780;-73
2023/11/16 09:11:49;;;;;;;10.80;5.00;;;;;;;;;;103587;1301;546328;-73
2023/11/16 09:15:26;;;;;;;10.00;3.20;;;;;;;;;;103786;1292;545971;-73
2023/11/16 09:19:07;;;;;;;11.30;3.40;;;;;;;;;;104000;1289;545060;-73
2023/11/16 09:22:42;;;;;;;11.30;4.20;;;;;;;;;;103812;1293;545729;-73
2023/11/16 09:26:15;;;;;;;9.00;4.30;;;;;;;;;;104084;1289;544975;-74
2023/11/16 09:29:55;;;;;;;7.30;2.90;;;;;;;;;;103711;1292;544863;-74
2023/11/16 09:33:34;;;;;;;9.20;3.30;;;;;;;;;;103900;1289;545619;-73
2023/11/16 09:37:10;;;;;;;10.30;3.10;;;;;;;;;;103841;1291;545066;-73
2023/11/16 09:40:49;;;;;;;7.50;2.50;;;;;;;;;;103808;1289;545858;-72
2023/11/16 09:44:28;;;;;;;21.60;11.00;;;;;;;;;;103758;1291;546438;-70
2023/11/16 09:48:06;;;;;;;11.50;5.60;;;;;;;;;;104242;1289;545097;-74
2023/11/16 09:51:41;;;;;;;6.60;2.70;;;;;;;;;;103865;1296;544827;-73
2023/11/16 09:55:21;;;;;;;8.80;2.90;;;;;;;;;;103827;1292;545090;-73
2023/11/16 09:59:01;;;;;;;11.60;3.30;;;;;;;;;;104257;1285;546017;-74
2023/11/16 10:02:55;;;;;;;8.00;3.40;;;;;;;;;;103705;1292;546220;-73
2023/11/16 10:06:12;;;;;;;9.00;3.70;;;;;;;;;;103784;1291;545954;-76
2023/11/16 10:09:49;;;;;;;7.60;3.30;;;;;;;;;;103855;1291;545377;-73
2023/11/16 10:13:25;;;;;;;11.40;3.70;;;;;;;;;;103769;1302;545617;-75
2023/11/16 10:17:04;;;;;;;7.90;2.70;;;;;;;;;;103803;1292;544794;-72
2023/11/16 10:20:42;;;;;;;15.60;4.90;;;;;;;;;;104438;1291;544863;-71
2023/11/16 10:24:20;;;;;;;10.60;3.50;;;;;;;;;;104073;1292;545138;-70
2023/11/16 10:27:56;;;;;;;7.10;2.40;;;;;;;;;;104232;1285;545350;-73
2023/11/16 10:31:34;;;;;;;10.00;2.70;;;;;;;;;;103781;1291;544841;-72
2023/11/16 10:35:14;;;;;;;10.10;3.20;;;;;;;;;;103769;1295;545479;-73
2023/11/16 10:38:47;;;;;;;7.00;2.40;;;;;;;;;;103784;1291;545005;-73
2023/11/16 10:42:26;;;;;;;7.50;2.40;;;;;;;;;;103860;1291;544785;-75
2023/11/16 10:46:05;;;;;;;8.70;2.70;;;;;;;;;;103971;1289;545707;-72
2023/11/16 10:49:38;;;;;;;11.30;3.80;;;;;;;;;;103765;1291;546668;-73
2023/11/16 10:53:22;;;;;;;9.90;3.60;;;;;;;;;;104002;1289;545770;-72
2023/11/16 10:56:55;;;;;;;8.80;3.00;;;;;;;;;;103737;1290;545458;-72
2023/11/16 11:00:34;;;;;;;11.80;4.50;;;;;;;;;;104028;1290;545053;-72
2023/11/16 11:04:11;;;;;;;10.80;4.10;;;;;;;;;;103439;1292;546040;-71
2023/11/16 11:07:57;;;;;;;13.20;5.30;;;;;;;;;;103669;1295;545686;-72
2023/11/16 11:11:27;;;;;;;10.90;3.90;;;;;;;;;;103756;1291;544832;-71
2023/11/16 11:15:03;;;;;;;11.90;4.40;;;;;;;;;;103878;1302;545375;-70
2023/11/16 11:18:48;;;;;;;12.90;4.80;;;;;;;;;;103613;1289;544985;-71
2023/11/16 11:22:18;;;;;;;8.40;3.60;;;;;;;;;;103646;1311;545120;-70
2023/11/16 11:26:03;;;;;;;10.20;3.80;;;;;;;;;;103689;1303;545695;-71
2023/11/16 11:29:33;;;;;;;7.90;2.80;;;;;;;;;;104005;1289;544843;-73
2023/11/16 11:33:14;;;;;;;7.30;2.90;;;;;;;;;;103688;1292;544837;-73
2023/11/16 11:36:50;;;;;;;7.90;2.20;;;;;;;;;;103746;1292;545436;-71
2023/11/16 11:40:26;;;;;;;11.50;1.90;;;;;;;;;;103911;1292;544942;-71
2023/11/16 11:44:04;;;;;;;6.90;2.70;;;;;;;;;;104005;1288;544764;-71
2023/11/16 11:47:41;;;;;;;7.10;1.90;;;;;;;;;;104042;1286;545964;-72
2023/11/16 11:51:20;;;;;;;5.20;1.80;;;;;;;;;;103708;1292;544997;-72
2023/11/16 11:54:55;;;;;;;5.40;1.80;;;;;;;;;;103650;1291;545008;-73
2023/11/16 11:58:28;;;;;;;7.30;1.90;;;;;;;;;;103951;1292;544834;-71
2023/11/16 12:02:11;;;;;;;9.60;1.90;;;;;;;;;;103574;1294;545098;-69
2023/11/16 12:06:00;;;;;;;11.10;3.20;;;;;;;;;;103778;1292;545038;-72
2023/11/16 12:09:25;;;;;;;15.40;6.90;;;;;;;;;;103685;1297;544936;-72
2023/11/16 12:13:04;;;;;;;11.00;4.60;;;;;;;;;;103798;1291;546289;-70
2023/11/16 12:16:41;;;;;;;10.70;4.50;;;;;;;;;;103597;1297;545048;-73
2023/11/16 12:20:17;;;;;;;12.70;5.80;;;;;;;;;;103474;1291;545253;-71
2023/11/16 12:23:55;;;;;;;11.50;5.00;;;;;;;;;;103666;1291;545708;-72
2023/11/16 12:27:36;;;;;;;8.20;2.70;;;;;;;;;;103446;1292;546134;-73
2023/11/16 12:31:11;;;;;;;9.30;3.40;;;;;;;;;;103677;1291;544846;-71
2023/11/16 12:34:48;;;;;;;8.30;3.60;;;;;;;;;;103738;1291;544868;-72
2023/11/16 12:38:24;;;;;;;7.90;2.20;;;;;;;;;;104169;1283;545901;-72
2023/11/16 12:42:07;;;;;;;9.20;2.50;;;;;;;;;;103746;1292;545953;-72
2023/11/16 12:45:40;;;;;;;9.20;2.80;;;;;;;;;;103642;1294;545283;-70
2023/11/16 12:49:17;;;;;;;6.90;2.70;;;;;;;;;;103685;1292;544975;-69
2023/11/16 12:52:54;;;;;;;7.20;3.00;;;;;;;;;;103670;1292;546196;-70
2023/11/16 12:56:32;;;;;;;5.80;2.50;;;;;;;;;;103970;1299;546062;-73
2023/11/16 13:00:08;;;;;;;6.80;2.80;;;;;;;;;;103747;1289;544764;-71
2023/11/16 13:03:46;;;;;;;8.90;3.30;;;;;;;;;;103705;1292;545105;-68
2023/11/16 13:07:24;;;;;;;9.70;4.60;;;;;;;;;;104070;1298;545342;-71
2023/11/16 13:11:01;;;;;;;13.20;8.50;;;;;;;;;;103743;1288;544887;-71
2023/11/16 13:14:38;;;;;;;11.00;7.00;;;;;;;;;;103593;1291;544856;-70
2023/11/16 13:18:18;;;;;;;23.20;20.60;;;;;;;;;;103479;1298;545073;-70
2023/11/16 13:21:54;;;;;;;52.80;31.40;;;;;;;;;;104245;1283;544962;-71
2023/11/16 13:25:37;;;;;;;14.20;6.80;;;;;;;;;;103346;1294;549678;-71
2023/11/16 13:29:09;;;;;;;11.70;3.80;;;;;;;;;;103697;1292;545011;-70
2023/11/16 13:32:46;;;;;;;18.90;10.20;;;;;;;;;;103781;1291;545339;-70
2023/11/16 13:36:23;;;;;;;10.60;4.10;;;;;;;;;;103692;1292;544960;-71
2023/11/16 13:39:57;;;;;;;7.60;2.50;;;;;;;;;;103900;1289;544982;-72
2023/11/16 13:43:39;;;;;;;6.90;2.30;;;;;;;;;;103454;1294;544926;-71
2023/11/16 13:47:12;;;;;;;8.80;3.00;;;;;;;;;;104544;1286;544983;-70
2023/11/16 13:50:53;;;;;;;8.00;2.10;;;;;;;;;;103663;1292;545301;-70
2023/11/16 13:54:33;;;;;;;11.10;2.60;;;;;;;;;;103957;1288;545055;-70
2023/11/16 13:58:08;;;;;;;15.40;8.10;;;;;;;;;;103199;1298;546275;-71
2023/11/16 14:01:47;;;;;;;28.90;12.50;;;;;;;;;;103499;1293;546318;-72
2023/11/16 14:05:24;;;;;;;69.70;44.30;;;;;;;;;;103743;1288;544874;-69
2023/11/16 14:09:01;;;;;;;94.10;52.20;;;;;;;;;;103438;1305;545472;-69
2023/11/16 14:12:39;;;;;;;64.70;39.40;;;;;;;;;;104095;1287;545328;-69
2023/11/16 14:16:16;;;;;;;52.80;41.70;;;;;;;;;;103322;1292;544907;-68
2023/11/16 14:19:55;;;;;;;40.70;32.00;;;;;;;;;;103473;1298;544879;-70
2023/11/16 14:23:29;;;;;;;18.40;12.00;;;;;;;;;;103699;1288;545107;-68
2023/11/16 14:27:08;;;;;;;22.60;10.00;;;;;;;;;;103658;1291;544799;-70
2023/11/16 14:30:45;;;;;;;56.80;25.40;;;;;;;;;;103792;1292;547254;-70
2023/11/16 14:34:23;;;;;;;63.10;30.60;;;;;;;;;;103352;1294;545072;-69
2023/11/16 14:38:00;;;;;;;57.10;23.30;;;;;;;;;;103436;1297;545505;-68
2023/11/16 14:41:40;;;;;;;52.50;26.80;;;;;;;;;;103790;1292;544898;-70
2023/11/16 14:45:17;;;;;;;51.90;25.30;;;;;;;;;;103737;1291;545951;-69
2023/11/16 14:48:53;;;;;;;45.00;24.30;;;;;;;;;;103594;1302;544808;-68
2023/11/16 14:52:33;;;;;;;23.30;10.50;;;;;;;;;;103645;1295;545390;-69
2023/11/16 14:56:08;;;;;;;22.30;9.10;;;;;;;;;;103691;1291;545977;-69
2023/11/16 14:59:48;;;;;;;20.40;8.10;;;;;;;;;;103514;1303;545620;-71
2023/11/16 15:03:22;;;;;;;14.90;5.70;;;;;;;;;;103702;1292;545005;-72
2023/11/16 15:07:01;;;;;;;16.10;7.00;;;;;;;;;;103507;1291;545019;-69
2023/11/16 15:10:37;;;;;;;17.80;7.70;;;;;;;;;;103468;1295;544926;-70
2023/11/16 15:14:14;;;;;;;21.60;11.40;;;;;;;;;;103562;1295;545823;-71
2023/11/16 15:17:52;;;;;;;16.00;9.60;;;;;;;;;;103334;1294;545500;-69
2023/11/16 15:21:29;;;;;;;17.30;9.40;;;;;;;;;;103722;1292;546170;-71
2023/11/16 15:25:07;;;;;;;17.20;10.70;;;;;;;;;;103526;1292;545073;-70
2023/11/16 15:28:47;;;;;;;20.10;14.30;;;;;;;;;;103772;1292;544741;-70
2023/11/16 15:32:22;;;;;;;26.50;16.20;;;;;;;;;;103769;1288;546595;-70
2023/11/16 15:36:00;;;;;;;36.50;22.00;;;;;;;;;;103709;1291;545435;-68
2023/11/16 15:39:38;;;;;;;33.30;19.50;;;;;;;;;;103470;1295;544922;-69
2023/11/16 15:43:15;;;;;;;34.20;20.00;;;;;;;;;;103561;1289;545288;-71
2023/11/16 15:46:52;;;;;;;34.40;19.70;;;;;;;;;;103966;1289;546234;-71
2023/11/16 15:50:31;;;;;;;38.10;21.90;;;;;;;;;;103937;1289;544953;-70
2023/11/16 15:54:07;;;;;;;37.70;22.20;;;;;;;;;;103573;1292;544847;-68
2023/11/16 15:57:46;;;;;;;34.20;19.30;;;;;;;;;;103392;1293;544998;-68
2023/11/16 16:01:23;;;;;;;32.70;19.70;;;;;;;;;;103519;1292;544896;-71
2023/11/16 16:04:59;;;;;;;34.80;19.60;;;;;;;;;;103522;1301;544862;-69
2023/11/16 16:08:37;;;;;;;40.50;24.20;;;;;;;;;;103559;1291;545264;-71
2023/11/16 16:12:36;;;;;;;43.60;24.30;;;;;;;;;;103684;1292;547826;-70
2023/11/16 16:15:52;;;;;;;44.60;24.70;;;;;;;;;;103485;1290;544834;-72
2023/11/16 16:19:32;;;;;;;43.20;23.60;;;;;;;;;;103646;1292;545401;-70
2023/11/16 16:23:07;;;;;;;40.40;20.70;;;;;;;;;;103631;1291;545266;-69
2023/11/16 16:26:44;;;;;;;36.10;19.50;;;;;;;;;;103629;1293;545898;-68
2023/11/16 16:30:21;;;;;;;35.10;20.40;;;;;;;;;;103264;1301;544861;-71
2023/11/16 16:33:59;;;;;;;39.50;22.20;;;;;;;;;;103649;1291;544866;-71
2023/11/16 16:37:37;;;;;;;43.80;25.60;;;;;;;;;;103559;1291;545546;-69
2023/11/16 16:41:13;;;;;;;61.10;31.90;;;;;;;;;;103564;1292;545455;-70
2023/11/16 16:44:52;;;;;;;67.00;34.10;;;;;;;;;;103490;1292;544953;-69
2023/11/16 16:48:29;;;;;;;58.50;31.10;;;;;;;;;;103560;1301;545054;-71
2023/11/16 16:52:06;;;;;;;44.60;24.20;;;;;;;;;;103557;1291;545485;-71
2023/11/16 16:55:44;;;;;;;37.50;20.90;;;;;;;;;;103670;1290;544885;-70
2023/11/16 16:59:24;;;;;;;40.50;23.50;;;;;;;;;;103546;1294;545139;-69
2023/11/16 17:02:59;;;;;;;42.00;23.30;;;;;;;;;;103613;1291;545760;-69
2023/11/16 17:06:36;;;;;;;37.70;22.60;;;;;;;;;;103662;1291;544788;-70
2023/11/16 17:10:17;;;;;;;38.50;22.40;;;;;;;;;;103738;1295;545203;-69
2023/11/16 17:13:52;;;;;;;39.10;22.50;;;;;;;;;;104323;1284;544777;-70
2023/11/16 17:17:29;;;;;;;39.50;24.10;;;;;;;;;;103527;1291;545335;-71
2023/11/16 17:21:13;;;;;;;36.70;23.00;;;;;;;;;;103415;1293;545010;-69
2023/11/16 17:24:43;;;;;;;43.50;24.30;;;;;;;;;;103514;1292;545083;-69
2023/11/16 17:28:21;;;;;;;42.00;24.60;;;;;;;;;;103652;1295;545007;-71
2023/11/16 17:32:00;;;;;;;43.30;24.70;;;;;;;;;;103941;1290;545017;-71
2023/11/16 17:35:36;;;;;;;41.50;26.90;;;;;;;;;;103522;1289;545061;-70
2023/11/16 17:39:16;;;;;;;43.50;27.90;;;;;;;;;;103656;1291;545550;-71
2023/11/16 17:42:54;;;;;;;44.10;30.50;;;;;;;;;;104267;1285;545576;-70
2023/11/16 17:46:29;;;;;;;51.80;34.10;;;;;;;;;;103340;1293;544965;-70
2023/11/16 17:50:07;;;;;;;52.50;32.50;;;;;;;;;;103347;1292;545765;-71
2023/11/16 17:53:47;;;;;;;53.60;32.70;;;;;;;;;;103672;1290;545333;-69
2023/11/16 17:57:20;;;;;;;57.40;35.70;;;;;;;;;;103274;1297;545449;-69
2023/11/16 18:00:58;;;;;;;65.50;42.20;;;;;;;;;;103943;1292;544835;-71
2023/11/16 18:04:38;;;;;;;104.80;68.30;;;;;;;;;;103563;1290;545131;-70
2023/11/16 18:08:10;;;;;;;83.70;49.70;;;;;;;;;;103521;1295;544693;-70
2023/11/16 18:11:52;;;;;;;72.10;40.20;;;;;;;;;;103631;1292;545983;-70
2023/11/16 18:15:28;;;;;;;78.80;44.70;;;;;;;;;;103733;1291;545171;-71
2023/11/16 18:19:13;;;;;;;72.70;40.90;;;;;;;;;;103530;1291;545350;-70
2023/11/16 18:22:43;;;;;;;69.70;40.20;;;;;;;;;;103505;1293;545434;-71
2023/11/16 18:26:21;;;;;;;61.50;35.70;;;;;;;;;;103562;1291;544925;-70
2023/11/16 18:30:00;;;;;;;64.80;37.60;;;;;;;;;;103695;1289;545751;-71
2023/11/16 18:33:35;;;;;;;65.80;40.80;;;;;;;;;;103492;1291;544761;-70
2023/11/16 18:37:12;;;;;;;52.60;31.30;;;;;;;;;;103785;1292;545871;-72
2023/11/16 18:40:50;;;;;;;46.70;25.00;;;;;;;;;;103338;1292;545075;-69
2023/11/16 18:44:27;;;;;;;42.80;19.90;;;;;;;;;;103364;1292;545262;-69
2023/11/16 18:48:10;;;;;;;26.10;15.10;;;;;;;;;;103705;1292;545158;-71
2023/11/16 18:51:47;;;;;;;21.20;12.30;;;;;;;;;;103653;1291;545505;-72
2023/11/16 18:55:22;;;;;;;22.70;12.90;;;;;;;;;;104292;1283;545429;-70
2023/11/16 18:59:00;;;;;;;29.60;18.90;;;;;;;;;;103532;1291;546320;-71
2023/11/16 19:02:36;;;;;;;27.60;17.30;;;;;;;;;;103862;1289;546015;-71
2023/11/16 19:06:16;;;;;;;16.60;8.70;;;;;;;;;;103447;1291;544757;-72
2023/11/16 19:09:51;;;;;;;31.00;14.90;;;;;;;;;;104376;1282;545371;-71
2023/11/16 19:13:27;;;;;;;49.60;25.10;;;;;;;;;;103892;1292;545899;-70
2023/11/16 19:17:05;;;;;;;40.80;21.50;;;;;;;;;;103635;1290;544996;-70
2023/11/16 19:20:42;;;;;;;32.40;17.40;;;;;;;;;;103676;1293;546453;-68
2023/11/16 19:24:19;;;;;;;31.90;18.30;;;;;;;;;;103717;1291;545868;-72
2023/11/16 19:27:57;;;;;;;35.20;19.10;;;;;;;;;;103652;1292;546076;-69
2023/11/16 19:31:35;;;;;;;26.70;15.90;;;;;;;;;;103691;1295;544964;-68
2023/11/16 19:35:16;;;;;;;36.00;20.80;;;;;;;;;;103557;1291;545410;-69
2023/11/16 19:38:52;;;;;;;47.40;27.60;;;;;;;;;;103395;1289;545735;-70
2023/11/16 19:42:33;;;;;;;45.70;26.20;;;;;;;;;;103647;1292;546150;-72
2023/11/16 19:46:05;;;;;;;43.70;24.70;;;;;;;;;;103692;1291;544768;-71
2023/11/16 19:49:43;;;;;;;41.10;24.40;;;;;;;;;;103468;1292;544951;-70
2023/11/16 19:53:17;;;;;;;37.10;21.50;;;;;;;;;;103729;1289;544797;-71
2023/11/16 19:56:57;;;;;;;39.20;20.80;;;;;;;;;;103551;1291;544745;-72
2023/11/16 20:00:37;;;;;;;36.10;19.10;;;;;;;;;;104259;1292;545026;-70
2023/11/16 20:04:14;;;;;;;28.40;17.10;;;;;;;;;;103506;1293;544720;-68
2023/11/16 20:07:52;;;;;;;29.50;17.60;;;;;;;;;;103664;1292;545197;-71
2023/11/16 20:11:29;;;;;;;29.30;18.10;;;;;;;;;;103697;1288;545346;-69
2023/11/16 20:15:06;;;;;;;32.40;19.00;;;;;;;;;;103579;1291;544961;-70
2023/11/16 20:18:40;;;;;;;34.90;18.00;;;;;;;;;;103514;1292;545381;-72
2023/11/16 20:22:19;;;;;;;40.50;23.10;;;;;;;;;;103495;1291;544769;-68
2023/11/16 20:25:56;;;;;;;67.30;32.10;;;;;;;;;;103656;1290;545092;-70
2023/11/16 20:29:35;;;;;;;68.70;32.30;;;;;;;;;;103567;1295;545440;-72
2023/11/16 20:33:11;;;;;;;62.80;29.20;;;;;;;;;;103628;1292;545928;-70
2023/11/16 20:36:48;;;;;;;60.60;31.20;;;;;;;;;;104011;1286;544940;-71
2023/11/16 20:40:47;;;;;;;54.90;29.60;;;;;;;;;;103619;1293;548073;-71
2023/11/16 20:44:04;;;;;;;61.80;32.90;;;;;;;;;;103812;1288;544863;-70
2023/11/16 20:47:43;;;;;;;63.60;30.50;;;;;;;;;;103351;1294;545046;-71
2023/11/16 20:51:19;;;;;;;70.10;35.90;;;;;;;;;;103843;1288;544818;-71